sensor_id;sensor_type;location;lat;lon;timestamp;P1;durP1;ratioP1;P2;durP2;ratioP2
15261;SDS011;7733;51.554;13.590;2023-02-28T00:01:09;4.57;;;4.17;;
15261;SDS011;7733;51.554;13.590;2023-02-28T00:03:36;4.30;;;4.00;;
15261;SDS011;7733;51.554;13.590;2023-02-28T00:06:03;4.87;;;4.40;;
15261;SDS011;7733;51.554;13.590;2023-02-28T00:08:34;5.03;;;4.60;;
15261;SDS011;7733;51.554;13.590;2023-02-28T00:11:01;5.43;;;3.90;;
15261;SDS011;7733;51.554;13.590;2023-02-28T00:13:29;4.13;;;3.77;;
15261;SDS011;7733;51.554;13.590;2023-02-28T00:16:04;4.00;;;3.70;;
15261;SDS011;7733;51.554;13.590;2023-02-28T00:18:38;4.47;;;3.20;;
15261;SDS011;7733;51.554;13.590;2023-02-28T00:21:04;3.27;;;3.07;;
15261;SDS011;7733;51.554;13.590;2023-02-28T00:23:31;3.80;;;3.50;;
15261;SDS011;7733;51.554;13.590;2023-02-28T00:25:57;4.23;;;3.40;;
15261;SDS011;7733;51.554;13.590;2023-02-28T00:28:23;5.10;;;3.90;;
15261;SDS011;7733;51.554;13.590;2023-02-28T00:30:49;3.50;;;3.27;;
15261;SDS011;7733;51.554;13.590;2023-02-28T00:33:15;3.27;;;2.97;;
15261;SDS011;7733;51.554;13.590;2023-02-28T00:35:41;3.20;;;3.00;;
15261;SDS011;7733;51.554;13.590;2023-02-28T00:38:08;3.00;;;2.80;;
15261;SDS011;7733;51.554;13.590;2023-02-28T00:40:34;3.30;;;3.10;;
15261;SDS011;7733;51.554;13.590;2023-02-28T00:43:00;3.30;;;3.10;;
15261;SDS011;7733;51.554;13.590;2023-02-28T00:45:26;3.53;;;2.80;;
15261;SDS011;7733;51.554;13.590;2023-02-28T00:47:52;3.27;;;3.03;;
15261;SDS011;7733;51.554;13.590;2023-02-28T00:50:18;3.40;;;3.20;;
15261;SDS011;7733;51.554;13.590;2023-02-28T00:52:45;3.13;;;2.93;;
15261;SDS011;7733;51.554;13.590;2023-02-28T00:55:12;3.63;;;3.33;;
15261;SDS011;7733;51.554;13.590;2023-02-28T00:57:38;3.43;;;3.23;;
15261;SDS011;7733;51.554;13.590;2023-02-28T01:00:04;3.70;;;3.40;;
15261;SDS011;7733;51.554;13.590;2023-02-28T01:02:32;3.50;;;3.20;;
15261;SDS011;7733;51.554;13.590;2023-02-28T01:04:58;3.37;;;3.17;;
15261;SDS011;7733;51.554;13.590;2023-02-28T01:07:24;3.53;;;3.33;;
15261;SDS011;7733;51.554;13.590;2023-02-28T01:09:50;3.47;;;3.17;;
15261;SDS011;7733;51.554;13.590;2023-02-28T01:12:15;3.30;;;3.10;;
15261;SDS011;7733;51.554;13.590;2023-02-28T01:14:41;3.50;;;3.20;;
15261;SDS011;7733;51.554;13.590;2023-02-28T01:17:07;3.13;;;2.93;;
15261;SDS011;7733;51.554;13.590;2023-02-28T01:19:33;3.13;;;2.93;;
15261;SDS011;7733;51.554;13.590;2023-02-28T01:22:00;3.40;;;3.10;;
15261;SDS011;7733;51.554;13.590;2023-02-28T01:24:28;3.47;;;3.17;;
15261;SDS011;7733;51.554;13.590;2023-02-28T01:26:54;3.20;;;3.00;;
15261;SDS011;7733;51.554;13.590;2023-02-28T01:29:20;3.87;;;3.57;;
15261;SDS011;7733;51.554;13.590;2023-02-28T01:31:46;3.10;;;2.90;;
15261;SDS011;7733;51.554;13.590;2023-02-28T01:34:12;3.10;;;2.90;;
15261;SDS011;7733;51.554;13.590;2023-02-28T01:36:37;3.27;;;3.07;;
15261;SDS011;7733;51.554;13.590;2023-02-28T01:39:03;3.40;;;3.10;;
15261;SDS011;7733;51.554;13.590;2023-02-28T01:41:31;3.07;;;2.97;;
15261;SDS011;7733;51.554;13.590;2023-02-28T01:44:00;3.60;;;3.30;;
15261;SDS011;7733;51.554;13.590;2023-02-28T01:46:31;3.90;;;3.17;;
15261;SDS011;7733;51.554;13.590;2023-02-28T01:49:12;3.33;;;3.10;;
15261;SDS011;7733;51.554;13.590;2023-02-28T01:51:44;3.23;;;3.03;;
15261;SDS011;7733;51.554;13.590;2023-02-28T01:54:23;3.70;;;3.40;;
15261;SDS011;7733;51.554;13.590;2023-02-28T01:57:10;3.63;;;3.10;;
15261;SDS011;7733;51.554;13.590;2023-02-28T01:59:42;3.13;;;2.93;;
15261;SDS011;7733;51.554;13.590;2023-02-28T02:02:16;3.20;;;3.00;;
15261;SDS011;7733;51.554;13.590;2023-02-28T02:05:00;4.30;;;3.10;;
15261;SDS011;7733;51.554;13.590;2023-02-28T02:07:33;3.60;;;3.30;;
15261;SDS011;7733;51.554;13.590;2023-02-28T02:10:22;3.93;;;3.20;;
15261;SDS011;7733;51.554;13.590;2023-02-28T02:18:55;3.37;;;3.03;;
15261;SDS011;7733;51.554;13.590;2023-02-28T02:25:29;4.03;;;3.63;;
15261;SDS011;7733;51.554;13.590;2023-02-28T02:34:26;3.70;;;3.40;;
15261;SDS011;7733;51.554;13.590;2023-02-28T02:37:04;4.33;;;3.70;;
15261;SDS011;7733;51.554;13.590;2023-02-28T02:40:30;3.43;;;3.23;;
15261;SDS011;7733;51.554;13.590;2023-02-28T02:45:36;3.87;;;3.50;;
15261;SDS011;7733;51.554;13.590;2023-02-28T02:48:30;3.70;;;3.40;;
15261;SDS011;7733;51.554;13.590;2023-02-28T02:51:03;3.73;;;3.20;;
15261;SDS011;7733;51.554;13.590;2023-02-28T02:54:22;3.40;;;3.20;;
15261;SDS011;7733;51.554;13.590;2023-02-28T02:56:33;3.30;;;3.10;;
15261;SDS011;7733;51.554;13.590;2023-02-28T02:59:02;3.80;;;3.40;;
15261;SDS011;7733;51.554;13.590;2023-02-28T03:01:34;3.97;;;3.50;;
15261;SDS011;7733;51.554;13.590;2023-02-28T03:04:04;3.80;;;3.50;;
15261;SDS011;7733;51.554;13.590;2023-02-28T03:06:37;3.60;;;3.30;;
15261;SDS011;7733;51.554;13.590;2023-02-28T03:09:04;4.13;;;3.83;;
15261;SDS011;7733;51.554;13.590;2023-02-28T03:11:30;3.90;;;3.60;;
15261;SDS011;7733;51.554;13.590;2023-02-28T03:17:12;4.20;;;3.90;;
15261;SDS011;7733;51.554;13.590;2023-02-28T03:20:00;4.20;;;3.80;;
15261;SDS011;7733;51.554;13.590;2023-02-28T03:23:56;3.97;;;3.67;;
15261;SDS011;7733;51.554;13.590;2023-02-28T03:26:07;3.90;;;3.50;;
15261;SDS011;7733;51.554;13.590;2023-02-28T03:29:03;4.00;;;3.70;;
15261;SDS011;7733;51.554;13.590;2023-02-28T03:31:58;4.67;;;4.10;;
15261;SDS011;7733;51.554;13.590;2023-02-28T03:34:59;3.73;;;3.43;;
15261;SDS011;7733;51.554;13.590;2023-02-28T03:37:39;4.03;;;3.77;;
15261;SDS011;7733;51.554;13.590;2023-02-28T03:40:14;4.10;;;3.70;;
15261;SDS011;7733;51.554;13.590;2023-02-28T03:42:47;4.87;;;4.47;;
15261;SDS011;7733;51.554;13.590;2023-02-28T03:45:23;4.80;;;3.80;;
15261;SDS011;7733;51.554;13.590;2023-02-28T03:50:42;3.80;;;3.50;;
15261;SDS011;7733;51.554;13.590;2023-02-28T03:53:25;3.80;;;3.40;;
15261;SDS011;7733;51.554;13.590;2023-02-28T03:56:14;3.50;;;3.30;;
15261;SDS011;7733;51.554;13.590;2023-02-28T03:58:51;3.93;;;3.37;;
15261;SDS011;7733;51.554;13.590;2023-02-28T04:01:27;3.80;;;3.47;;
15261;SDS011;7733;51.554;13.590;2023-02-28T04:04:11;5.03;;;4.53;;
15261;SDS011;7733;51.554;13.590;2023-02-28T04:06:39;5.47;;;4.03;;
15261;SDS011;7733;51.554;13.590;2023-02-28T04:09:06;5.80;;;4.50;;
15261;SDS011;7733;51.554;13.590;2023-02-28T04:14:20;5.40;;;4.17;;
15261;SDS011;7733;51.554;13.590;2023-02-28T04:16:46;4.30;;;4.00;;
15261;SDS011;7733;51.554;13.590;2023-02-28T04:19:12;4.70;;;4.27;;
15261;SDS011;7733;51.554;13.590;2023-02-28T04:21:43;4.63;;;4.23;;
15261;SDS011;7733;51.554;13.590;2023-02-28T04:24:16;4.80;;;4.40;;
15261;SDS011;7733;51.554;13.590;2023-02-28T04:26:46;5.30;;;4.40;;
15261;SDS011;7733;51.554;13.590;2023-02-28T04:29:25;4.40;;;4.10;;
15261;SDS011;7733;51.554;13.590;2023-02-28T04:31:59;5.33;;;4.50;;
15261;SDS011;7733;51.554;13.590;2023-02-28T04:34:27;6.07;;;4.73;;
15261;SDS011;7733;51.554;13.590;2023-02-28T04:36:56;4.97;;;4.50;;
15261;SDS011;7733;51.554;13.590;2023-02-28T04:39:23;5.50;;;4.60;;
15261;SDS011;7733;51.554;13.590;2023-02-28T04:41:49;5.73;;;4.23;;
15261;SDS011;7733;51.554;13.590;2023-02-28T04:44:15;4.87;;;4.37;;
15261;SDS011;7733;51.554;13.590;2023-02-28T04:46:42;6.23;;;4.90;;
15261;SDS011;7733;51.554;13.590;2023-02-28T04:49:09;6.00;;;4.90;;
15261;SDS011;7733;51.554;13.590;2023-02-28T04:51:36;5.07;;;4.57;;
15261;SDS011;7733;51.554;13.590;2023-02-28T04:54:02;4.90;;;4.50;;
15261;SDS011;7733;51.554;13.590;2023-02-28T04:56:28;5.70;;;4.80;;
15261;SDS011;7733;51.554;13.590;2023-02-28T04:58:54;5.57;;;5.07;;
15261;SDS011;7733;51.554;13.590;2023-02-28T05:01:30;5.97;;;5.47;;
15261;SDS011;7733;51.554;13.590;2023-02-28T05:04:00;5.50;;;5.00;;
15261;SDS011;7733;51.554;13.590;2023-02-28T05:06:28;5.37;;;4.80;;
15261;SDS011;7733;51.554;13.590;2023-02-28T05:08:57;5.43;;;4.87;;
15261;SDS011;7733;51.554;13.590;2023-02-28T05:11:28;7.00;;;4.60;;
15261;SDS011;7733;51.554;13.590;2023-02-28T05:14:00;5.23;;;4.73;;
15261;SDS011;7733;51.554;13.590;2023-02-28T05:16:28;4.83;;;4.43;;
15261;SDS011;7733;51.554;13.590;2023-02-28T05:18:53;5.27;;;4.87;;
15261;SDS011;7733;51.554;13.590;2023-02-28T05:23:55;45.87;;;33.07;;
15261;SDS011;7733;51.554;13.590;2023-02-28T05:26:25;31.43;;;23.97;;
15261;SDS011;7733;51.554;13.590;2023-02-28T05:28:52;19.43;;;14.90;;
15261;SDS011;7733;51.554;13.590;2023-02-28T05:31:19;11.27;;;8.77;;
15261;SDS011;7733;51.554;13.590;2023-02-28T05:33:45;7.30;;;6.60;;
15261;SDS011;7733;51.554;13.590;2023-02-28T05:36:11;6.50;;;5.83;;
15261;SDS011;7733;51.554;13.590;2023-02-28T05:38:37;5.60;;;5.03;;
15261;SDS011;7733;51.554;13.590;2023-02-28T05:41:06;7.50;;;6.77;;
15261;SDS011;7733;51.554;13.590;2023-02-28T05:43:34;11.03;;;8.43;;
15261;SDS011;7733;51.554;13.590;2023-02-28T05:46:02;23.87;;;15.53;;
15261;SDS011;7733;51.554;13.590;2023-02-28T05:48:30;40.93;;;22.53;;
15261;SDS011;7733;51.554;13.590;2023-02-28T05:50:57;46.07;;;23.57;;
15261;SDS011;7733;51.554;13.590;2023-02-28T05:53:23;36.23;;;19.73;;
15261;SDS011;7733;51.554;13.590;2023-02-28T05:55:49;26.40;;;15.27;;
15261;SDS011;7733;51.554;13.590;2023-02-28T05:58:14;23.63;;;13.33;;
15261;SDS011;7733;51.554;13.590;2023-02-28T06:00:40;18.83;;;11.70;;
15261;SDS011;7733;51.554;13.590;2023-02-28T06:03:06;6.73;;;5.80;;
15261;SDS011;7733;51.554;13.590;2023-02-28T06:05:31;9.33;;;6.30;;
15261;SDS011;7733;51.554;13.590;2023-02-28T06:07:58;7.37;;;6.23;;
15261;SDS011;7733;51.554;13.590;2023-02-28T06:10:23;5.37;;;4.87;;
15261;SDS011;7733;51.554;13.590;2023-02-28T06:12:49;7.70;;;5.80;;
15261;SDS011;7733;51.554;13.590;2023-02-28T06:15:15;8.03;;;7.23;;
15261;SDS011;7733;51.554;13.590;2023-02-28T06:17:42;7.10;;;6.40;;
15261;SDS011;7733;51.554;13.590;2023-02-28T06:20:09;7.33;;;6.63;;
15261;SDS011;7733;51.554;13.590;2023-02-28T06:22:37;7.00;;;6.13;;
15261;SDS011;7733;51.554;13.590;2023-02-28T06:25:04;7.20;;;6.00;;
15261;SDS011;7733;51.554;13.590;2023-02-28T06:27:32;7.37;;;6.33;;
15261;SDS011;7733;51.554;13.590;2023-02-28T06:29:59;8.23;;;7.03;;
15261;SDS011;7733;51.554;13.590;2023-02-28T06:32:25;9.40;;;7.57;;
15261;SDS011;7733;51.554;13.590;2023-02-28T06:34:50;9.87;;;8.90;;
15261;SDS011;7733;51.554;13.590;2023-02-28T06:37:16;9.17;;;8.23;;
15261;SDS011;7733;51.554;13.590;2023-02-28T06:39:43;8.07;;;7.27;;
15261;SDS011;7733;51.554;13.590;2023-02-28T06:42:09;7.77;;;6.10;;
15261;SDS011;7733;51.554;13.590;2023-02-28T06:44:35;8.20;;;5.90;;
15261;SDS011;7733;51.554;13.590;2023-02-28T06:47:01;6.77;;;6.17;;
15261;SDS011;7733;51.554;13.590;2023-02-28T06:49:30;6.37;;;5.87;;
15261;SDS011;7733;51.554;13.590;2023-02-28T06:51:58;6.67;;;5.97;;
15261;SDS011;7733;51.554;13.590;2023-02-28T06:54:24;7.37;;;6.60;;
15261;SDS011;7733;51.554;13.590;2023-02-28T06:56:49;9.07;;;8.13;;
15261;SDS011;7733;51.554;13.590;2023-02-28T06:59:16;14.43;;;13.03;;
15261;SDS011;7733;51.554;13.590;2023-02-28T07:01:42;12.00;;;10.90;;
15261;SDS011;7733;51.554;13.590;2023-02-28T07:04:08;11.77;;;9.83;;
15261;SDS011;7733;51.554;13.590;2023-02-28T07:06:34;9.27;;;8.23;;
15261;SDS011;7733;51.554;13.590;2023-02-28T07:09:00;8.17;;;7.40;;
15261;SDS011;7733;51.554;13.590;2023-02-28T07:11:26;7.73;;;6.97;;
15261;SDS011;7733;51.554;13.590;2023-02-28T07:13:53;7.93;;;6.50;;
15261;SDS011;7733;51.554;13.590;2023-02-28T07:16:21;13.07;;;9.97;;
15261;SDS011;7733;51.554;13.590;2023-02-28T07:18:48;12.03;;;8.97;;
15261;SDS011;7733;51.554;13.590;2023-02-28T07:21:14;9.30;;;7.70;;
15261;SDS011;7733;51.554;13.590;2023-02-28T07:23:40;11.13;;;7.63;;
15261;SDS011;7733;51.554;13.590;2023-02-28T07:26:07;8.10;;;7.20;;
15261;SDS011;7733;51.554;13.590;2023-02-28T07:28:39;16.27;;;12.90;;
15261;SDS011;7733;51.554;13.590;2023-02-28T07:31:07;7.97;;;7.17;;
15261;SDS011;7733;51.554;13.590;2023-02-28T07:33:34;8.73;;;6.50;;
15261;SDS011;7733;51.554;13.590;2023-02-28T07:36:05;6.50;;;5.67;;
15261;SDS011;7733;51.554;13.590;2023-02-28T07:38:44;5.97;;;5.37;;
15261;SDS011;7733;51.554;13.590;2023-02-28T07:41:13;5.77;;;5.27;;
15261;SDS011;7733;51.554;13.590;2023-02-28T07:43:44;6.43;;;4.87;;
15261;SDS011;7733;51.554;13.590;2023-02-28T07:46:11;5.37;;;4.80;;
15261;SDS011;7733;51.554;13.590;2023-02-28T07:48:42;5.17;;;4.67;;
15261;SDS011;7733;51.554;13.590;2023-02-28T07:51:09;5.53;;;4.93;;
15261;SDS011;7733;51.554;13.590;2023-02-28T07:53:35;4.70;;;4.30;;
15261;SDS011;7733;51.554;13.590;2023-02-28T07:56:01;5.97;;;4.57;;
15261;SDS011;7733;51.554;13.590;2023-02-28T07:58:28;4.73;;;4.33;;
15261;SDS011;7733;51.554;13.590;2023-02-28T08:00:55;5.10;;;4.70;;
15261;SDS011;7733;51.554;13.590;2023-02-28T08:03:23;4.80;;;4.37;;
15261;SDS011;7733;51.554;13.590;2023-02-28T08:05:50;4.70;;;4.30;;
15261;SDS011;7733;51.554;13.590;2023-02-28T08:08:17;7.97;;;4.30;;
15261;SDS011;7733;51.554;13.590;2023-02-28T08:10:43;3.90;;;3.57;;
15261;SDS011;7733;51.554;13.590;2023-02-28T08:13:09;4.70;;;4.30;;
15261;SDS011;7733;51.554;13.590;2023-02-28T08:15:34;4.70;;;4.23;;
15261;SDS011;7733;51.554;13.590;2023-02-28T08:18:01;5.03;;;4.47;;
15261;SDS011;7733;51.554;13.590;2023-02-28T08:20:27;4.53;;;4.07;;
15261;SDS011;7733;51.554;13.590;2023-02-28T08:22:53;4.90;;;4.50;;
15261;SDS011;7733;51.554;13.590;2023-02-28T08:25:19;5.67;;;5.17;;
15261;SDS011;7733;51.554;13.590;2023-02-28T08:27:45;5.67;;;5.17;;
15261;SDS011;7733;51.554;13.590;2023-02-28T08:30:12;4.43;;;4.13;;
15261;SDS011;7733;51.554;13.590;2023-02-28T08:32:39;4.30;;;3.57;;
15261;SDS011;7733;51.554;13.590;2023-02-28T08:35:05;4.10;;;3.70;;
15261;SDS011;7733;51.554;13.590;2023-02-28T08:37:34;6.07;;;4.10;;
15261;SDS011;7733;51.554;13.590;2023-02-28T08:40:00;4.00;;;3.70;;
15261;SDS011;7733;51.554;13.590;2023-02-28T08:42:25;3.43;;;3.13;;
15261;SDS011;7733;51.554;13.590;2023-02-28T08:44:51;4.13;;;3.20;;
15261;SDS011;7733;51.554;13.590;2023-02-28T08:47:17;3.93;;;3.30;;
15261;SDS011;7733;51.554;13.590;2023-02-28T08:49:44;3.30;;;3.00;;
15261;SDS011;7733;51.554;13.590;2023-02-28T08:52:09;3.30;;;3.10;;
15261;SDS011;7733;51.554;13.590;2023-02-28T08:54:35;4.00;;;3.47;;
15261;SDS011;7733;51.554;13.590;2023-02-28T08:57:01;3.67;;;3.37;;
15261;SDS011;7733;51.554;13.590;2023-02-28T08:59:28;3.83;;;3.53;;
15261;SDS011;7733;51.554;13.590;2023-02-28T09:01:54;21.27;;;15.30;;
15261;SDS011;7733;51.554;13.590;2023-02-28T09:04:20;7.70;;;5.67;;
15261;SDS011;7733;51.554;13.590;2023-02-28T09:06:47;11.40;;;9.00;;
15261;SDS011;7733;51.554;13.590;2023-02-28T09:09:13;4.40;;;4.10;;
15261;SDS011;7733;51.554;13.590;2023-02-28T09:11:40;3.60;;;3.30;;
15261;SDS011;7733;51.554;13.590;2023-02-28T09:14:06;5.10;;;4.60;;
15261;SDS011;7733;51.554;13.590;2023-02-28T09:16:33;4.03;;;3.60;;
15261;SDS011;7733;51.554;13.590;2023-02-28T09:18:59;3.80;;;3.50;;
15261;SDS011;7733;51.554;13.590;2023-02-28T09:21:26;3.83;;;3.30;;
15261;SDS011;7733;51.554;13.590;2023-02-28T09:23:53;4.00;;;3.57;;
15261;SDS011;7733;51.554;13.590;2023-02-28T09:26:23;3.80;;;3.50;;
15261;SDS011;7733;51.554;13.590;2023-02-28T09:28:51;4.60;;;3.87;;
15261;SDS011;7733;51.554;13.590;2023-02-28T09:31:20;4.77;;;3.63;;
15261;SDS011;7733;51.554;13.590;2023-02-28T09:33:50;4.00;;;3.70;;
15261;SDS011;7733;51.554;13.590;2023-02-28T09:36:19;4.47;;;3.87;;
15261;SDS011;7733;51.554;13.590;2023-02-28T09:38:46;4.07;;;3.77;;
15261;SDS011;7733;51.554;13.590;2023-02-28T09:41:15;3.90;;;3.60;;
15261;SDS011;7733;51.554;13.590;2023-02-28T09:43:52;3.30;;;3.10;;
15261;SDS011;7733;51.554;13.590;2023-02-28T09:46:30;3.90;;;3.30;;
15261;SDS011;7733;51.554;13.590;2023-02-28T09:49:12;4.27;;;3.53;;
15261;SDS011;7733;51.554;13.590;2023-02-28T09:51:52;5.03;;;3.70;;
15261;SDS011;7733;51.554;13.590;2023-02-28T09:54:31;3.73;;;3.43;;
15261;SDS011;7733;51.554;13.590;2023-02-28T09:56:59;3.63;;;3.33;;
15261;SDS011;7733;51.554;13.590;2023-02-28T10:05:19;3.87;;;3.43;;
15261;SDS011;7733;51.554;13.590;2023-02-28T10:10:40;4.10;;;3.80;;
15261;SDS011;7733;51.554;13.590;2023-02-28T10:15:50;4.13;;;3.73;;
15261;SDS011;7733;51.554;13.590;2023-02-28T10:18:39;4.13;;;3.90;;
15261;SDS011;7733;51.554;13.590;2023-02-28T10:21:19;5.07;;;4.57;;
15261;SDS011;7733;51.554;13.590;2023-02-28T10:24:13;4.73;;;4.27;;
15261;SDS011;7733;51.554;13.590;2023-02-28T10:26:53;4.73;;;4.30;;
15261;SDS011;7733;51.554;13.590;2023-02-28T10:29:46;4.87;;;4.47;;
15261;SDS011;7733;51.554;13.590;2023-02-28T10:32:19;5.97;;;4.20;;
15261;SDS011;7733;51.554;13.590;2023-02-28T10:34:59;4.37;;;3.90;;
15261;SDS011;7733;51.554;13.590;2023-02-28T10:37:39;4.30;;;4.00;;
15261;SDS011;7733;51.554;13.590;2023-02-28T10:42:42;4.37;;;3.90;;
15261;SDS011;7733;51.554;13.590;2023-02-28T10:45:22;3.57;;;3.27;;
15261;SDS011;7733;51.554;13.590;2023-02-28T10:50:34;4.13;;;3.83;;
15261;SDS011;7733;51.554;13.590;2023-02-28T11:01:23;3.60;;;3.33;;
15261;SDS011;7733;51.554;13.590;2023-02-28T11:03:55;4.10;;;3.80;;
15261;SDS011;7733;51.554;13.590;2023-02-28T11:06:43;3.60;;;3.30;;
15261;SDS011;7733;51.554;13.590;2023-02-28T11:09:24;4.80;;;4.40;;
15261;SDS011;7733;51.554;13.590;2023-02-28T11:11:58;15.70;;;9.13;;
15261;SDS011;7733;51.554;13.590;2023-02-28T11:14:27;5.80;;;5.20;;
15261;SDS011;7733;51.554;13.590;2023-02-28T11:17:11;4.73;;;4.23;;
15261;SDS011;7733;51.554;13.590;2023-02-28T11:20:04;3.97;;;3.60;;
15261;SDS011;7733;51.554;13.590;2023-02-28T11:22:44;4.83;;;4.33;;
15261;SDS011;7733;51.554;13.590;2023-02-28T11:27:56;4.67;;;4.27;;
15261;SDS011;7733;51.554;13.590;2023-02-28T11:30:38;4.70;;;4.40;;
15261;SDS011;7733;51.554;13.590;2023-02-28T11:33:20;5.20;;;4.67;;
15261;SDS011;7733;51.554;13.590;2023-02-28T11:36:10;4.90;;;4.50;;
15261;SDS011;7733;51.554;13.590;2023-02-28T11:38:50;5.17;;;4.77;;
15261;SDS011;7733;51.554;13.590;2023-02-28T11:44:22;4.70;;;4.30;;
15261;SDS011;7733;51.554;13.590;2023-02-28T11:46:58;5.23;;;4.17;;
15261;SDS011;7733;51.554;13.590;2023-02-28T11:49:49;4.50;;;4.10;;
15261;SDS011;7733;51.554;13.590;2023-02-28T11:52:39;4.77;;;4.10;;
15261;SDS011;7733;51.554;13.590;2023-02-28T11:55:24;5.37;;;4.87;;
15261;SDS011;7733;51.554;13.590;2023-02-28T12:10:29;4.60;;;4.20;;
15261;SDS011;7733;51.554;13.590;2023-02-28T12:13:10;4.40;;;4.00;;
15261;SDS011;7733;51.554;13.590;2023-02-28T12:15:49;4.73;;;4.33;;
15261;SDS011;7733;51.554;13.590;2023-02-28T12:24:31;4.60;;;4.20;;
15261;SDS011;7733;51.554;13.590;2023-02-28T12:27:37;4.53;;;4.17;;
15261;SDS011;7733;51.554;13.590;2023-02-28T12:30:27;4.83;;;4.43;;
15261;SDS011;7733;51.554;13.590;2023-02-28T12:35:39;5.10;;;4.70;;
15261;SDS011;7733;51.554;13.590;2023-02-28T12:43:34;4.60;;;4.20;;
15261;SDS011;7733;51.554;13.590;2023-02-28T12:46:25;4.90;;;4.10;;
15261;SDS011;7733;51.554;13.590;2023-02-28T12:49:05;4.73;;;4.37;;
15261;SDS011;7733;51.554;13.590;2023-02-28T12:51:38;4.27;;;3.97;;
15261;SDS011;7733;51.554;13.590;2023-02-28T12:54:18;4.67;;;4.07;;
15261;SDS011;7733;51.554;13.590;2023-02-28T12:59:42;4.60;;;4.20;;
15261;SDS011;7733;51.554;13.590;2023-02-28T13:11:22;5.47;;;4.37;;
15261;SDS011;7733;51.554;13.590;2023-02-28T13:19:31;6.10;;;4.80;;
15261;SDS011;7733;51.554;13.590;2023-02-28T13:22:01;8.43;;;7.20;;
15261;SDS011;7733;51.554;13.590;2023-02-28T13:24:42;5.10;;;4.70;;
15261;SDS011;7733;51.554;13.590;2023-02-28T13:29:40;9.97;;;8.97;;
15261;SDS011;7733;51.554;13.590;2023-02-28T13:34:35;6.80;;;6.10;;
15261;SDS011;7733;51.554;13.590;2023-02-28T13:39:53;6.00;;;5.50;;
15261;SDS011;7733;51.554;13.590;2023-02-28T13:50:32;5.00;;;4.60;;
15261;SDS011;7733;51.554;13.590;2023-02-28T13:59:01;5.60;;;4.60;;
15261;SDS011;7733;51.554;13.590;2023-02-28T14:04:40;5.30;;;4.80;;
15261;SDS011;7733;51.554;13.590;2023-02-28T14:07:41;6.23;;;5.63;;
15261;SDS011;7733;51.554;13.590;2023-02-28T14:16:21;4.97;;;4.60;;
15261;SDS011;7733;51.554;13.590;2023-02-28T14:33:48;4.13;;;3.73;;
15261;SDS011;7733;51.554;13.590;2023-02-28T14:36:31;4.37;;;3.97;;
15261;SDS011;7733;51.554;13.590;2023-02-28T14:39:05;4.90;;;4.40;;
15261;SDS011;7733;51.554;13.590;2023-02-28T14:41:38;4.70;;;4.20;;
15261;SDS011;7733;51.554;13.590;2023-02-28T14:44:19;7.57;;;6.20;;
15261;SDS011;7733;51.554;13.590;2023-02-28T14:46:50;4.90;;;4.40;;
15261;SDS011;7733;51.554;13.590;2023-02-28T14:49:28;4.50;;;4.10;;
15261;SDS011;7733;51.554;13.590;2023-02-28T14:52:15;4.40;;;4.00;;
15261;SDS011;7733;51.554;13.590;2023-02-28T14:54:51;4.00;;;3.70;;
15261;SDS011;7733;51.554;13.590;2023-02-28T14:57:28;4.40;;;4.00;;
15261;SDS011;7733;51.554;13.590;2023-02-28T15:00:01;4.10;;;3.70;;
15261;SDS011;7733;51.554;13.590;2023-02-28T15:02:45;3.90;;;3.60;;
15261;SDS011;7733;51.554;13.590;2023-02-28T15:07:46;4.10;;;3.70;;
15261;SDS011;7733;51.554;13.590;2023-02-28T15:10:25;8.07;;;4.10;;
15261;SDS011;7733;51.554;13.590;2023-02-28T15:12:54;3.87;;;3.57;;
15261;SDS011;7733;51.554;13.590;2023-02-28T15:15:24;11.83;;;10.50;;
15261;SDS011;7733;51.554;13.590;2023-02-28T15:18:05;4.50;;;4.10;;
15261;SDS011;7733;51.554;13.590;2023-02-28T15:20:35;4.23;;;3.93;;
15261;SDS011;7733;51.554;13.590;2023-02-28T15:23:06;6.40;;;5.80;;
15261;SDS011;7733;51.554;13.590;2023-02-28T15:25:32;6.97;;;6.27;;
15261;SDS011;7733;51.554;13.590;2023-02-28T15:27:58;5.77;;;5.30;;
15261;SDS011;7733;51.554;13.590;2023-02-28T15:30:26;4.50;;;4.10;;
15261;SDS011;7733;51.554;13.590;2023-02-28T15:35:41;3.90;;;3.70;;
15261;SDS011;7733;51.554;13.590;2023-02-28T15:43:28;4.00;;;3.70;;
15261;SDS011;7733;51.554;13.590;2023-02-28T15:48:32;4.10;;;3.70;;
15261;SDS011;7733;51.554;13.590;2023-02-28T15:51:07;3.50;;;3.20;;
15261;SDS011;7733;51.554;13.590;2023-02-28T15:56:26;5.33;;;4.70;;
15261;SDS011;7733;51.554;13.590;2023-02-28T15:58:58;4.30;;;4.00;;
15261;SDS011;7733;51.554;13.590;2023-02-28T16:01:33;4.80;;;4.40;;
15261;SDS011;7733;51.554;13.590;2023-02-28T16:04:02;4.87;;;4.37;;
15261;SDS011;7733;51.554;13.590;2023-02-28T16:06:44;4.27;;;3.90;;
15261;SDS011;7733;51.554;13.590;2023-02-28T16:09:30;4.47;;;4.17;;
15261;SDS011;7733;51.554;13.590;2023-02-28T16:11:59;4.60;;;4.20;;
15261;SDS011;7733;51.554;13.590;2023-02-28T16:14:28;10.07;;;9.13;;
15261;SDS011;7733;51.554;13.590;2023-02-28T16:17:02;5.87;;;5.33;;
15261;SDS011;7733;51.554;13.590;2023-02-28T16:19:43;6.23;;;4.57;;
15261;SDS011;7733;51.554;13.590;2023-02-28T16:22:09;4.50;;;3.93;;
15261;SDS011;7733;51.554;13.590;2023-02-28T16:24:35;5.30;;;3.73;;
15261;SDS011;7733;51.554;13.590;2023-02-28T16:27:01;4.10;;;3.80;;
15261;SDS011;7733;51.554;13.590;2023-02-28T16:29:29;3.90;;;3.60;;
15261;SDS011;7733;51.554;13.590;2023-02-28T16:32:04;3.50;;;3.20;;
15261;SDS011;7733;51.554;13.590;2023-02-28T16:34:30;4.07;;;3.43;;
15261;SDS011;7733;51.554;13.590;2023-02-28T16:36:57;4.33;;;4.03;;
15261;SDS011;7733;51.554;13.590;2023-02-28T16:39:23;4.33;;;3.70;;
15261;SDS011;7733;51.554;13.590;2023-02-28T16:41:49;4.10;;;3.80;;
15261;SDS011;7733;51.554;13.590;2023-02-28T16:44:26;4.83;;;3.33;;
15261;SDS011;7733;51.554;13.590;2023-02-28T16:46:56;4.33;;;3.97;;
15261;SDS011;7733;51.554;13.590;2023-02-28T16:49:24;3.60;;;3.40;;
15261;SDS011;7733;51.554;13.590;2023-02-28T16:51:50;4.07;;;3.50;;
15261;SDS011;7733;51.554;13.590;2023-02-28T16:54:16;3.30;;;3.10;;
15261;SDS011;7733;51.554;13.590;2023-02-28T16:56:42;3.43;;;3.13;;
15261;SDS011;7733;51.554;13.590;2023-02-28T16:59:12;4.70;;;2.93;;
15261;SDS011;7733;51.554;13.590;2023-02-28T17:01:43;3.70;;;3.37;;
15261;SDS011;7733;51.554;13.590;2023-02-28T17:04:09;3.33;;;2.77;;
15261;SDS011;7733;51.554;13.590;2023-02-28T17:06:36;3.30;;;3.00;;
15261;SDS011;7733;51.554;13.590;2023-02-28T17:09:03;3.00;;;2.80;;
15261;SDS011;7733;51.554;13.590;2023-02-28T17:11:29;3.10;;;2.80;;
15261;SDS011;7733;51.554;13.590;2023-02-28T17:13:55;3.00;;;2.80;;
15261;SDS011;7733;51.554;13.590;2023-02-28T17:16:30;3.43;;;3.13;;
15261;SDS011;7733;51.554;13.590;2023-02-28T17:19:01;2.90;;;2.80;;
15261;SDS011;7733;51.554;13.590;2023-02-28T17:21:30;3.20;;;2.90;;
15261;SDS011;7733;51.554;13.590;2023-02-28T17:23:58;6.20;;;4.33;;
15261;SDS011;7733;51.554;13.590;2023-02-28T17:26:25;3.57;;;3.27;;
15261;SDS011;7733;51.554;13.590;2023-02-28T17:28:52;4.00;;;3.57;;
15261;SDS011;7733;51.554;13.590;2023-02-28T17:31:21;3.50;;;3.23;;
15261;SDS011;7733;51.554;13.590;2023-02-28T17:33:50;3.20;;;3.00;;
15261;SDS011;7733;51.554;13.590;2023-02-28T17:36:18;3.03;;;2.83;;
15261;SDS011;7733;51.554;13.590;2023-02-28T17:38:51;3.13;;;2.83;;
15261;SDS011;7733;51.554;13.590;2023-02-28T17:41:18;3.60;;;3.30;;
15261;SDS011;7733;51.554;13.590;2023-02-28T17:43:44;6.23;;;5.20;;
15261;SDS011;7733;51.554;13.590;2023-02-28T17:46:17;15.73;;;10.30;;
15261;SDS011;7733;51.554;13.590;2023-02-28T17:48:49;22.00;;;11.77;;
15261;SDS011;7733;51.554;13.590;2023-02-28T17:51:17;23.73;;;11.97;;
15261;SDS011;7733;51.554;13.590;2023-02-28T17:53:46;19.53;;;11.63;;
15261;SDS011;7733;51.554;13.590;2023-02-28T17:56:13;20.63;;;10.40;;
15261;SDS011;7733;51.554;13.590;2023-02-28T17:58:50;23.03;;;13.87;;